createdAt,value
2023-03-01T00:00:19.776Z,38.20
2023-03-01T00:02:46.834Z,37.53
2023-03-01T00:05:13.882Z,38.17
2023-03-01T00:07:41.186Z,37.93
2023-03-01T00:10:08.696Z,37.80
2023-03-01T00:12:37.538Z,36.30
2023-03-01T00:15:05.895Z,38.83
2023-03-01T00:17:32.952Z,38.47
2023-03-01T00:20:00.002Z,38.23
2023-03-01T00:22:29.571Z,39.20
2023-03-01T00:24:56.787Z,37.30
2023-03-01T00:27:23.869Z,38.37
2023-03-01T00:29:51.128Z,38.07
2023-03-01T00:32:18.137Z,38.67
2023-03-01T00:34:55.022Z,38.90
2023-03-01T00:37:23.053Z,38.00
2023-03-01T00:39:50.258Z,38.67
2023-03-01T00:42:17.880Z,38.20
2023-03-01T00:44:44.842Z,38.90
2023-03-01T00:47:11.824Z,38.17
2023-03-01T00:49:38.866Z,37.73
2023-03-01T00:52:06.009Z,39.67
2023-03-01T00:54:33.050Z,38.17
2023-03-01T00:57:00.129Z,39.00
2023-03-01T00:59:27.520Z,37.03
2023-03-01T01:01:54.666Z,39.53
2023-03-01T01:04:23.549Z,39.43
2023-03-01T01:06:50.632Z,39.17
2023-03-01T01:09:18.743Z,40.43
2023-03-01T01:11:48.419Z,40.87
2023-03-01T01:14:16.322Z,36.77
2023-03-01T01:16:43.342Z,37.17
2023-03-01T01:19:11.780Z,38.53
2023-03-01T01:21:38.775Z,38.40
2023-03-01T01:24:06.579Z,40.50
2023-03-01T01:26:35.075Z,42.77
2023-03-01T01:29:04.326Z,41.63
2023-03-01T01:31:32.412Z,42.00
2023-03-01T01:34:01.676Z,42.90
2023-03-01T01:36:29.350Z,43.97
2023-03-01T01:38:57.049Z,43.97
2023-03-01T01:41:25.769Z,43.27
2023-03-01T01:44:14.840Z,43.17
2023-03-01T01:47:13.772Z,42.90
2023-03-01T01:49:56.362Z,40.97
2023-03-01T01:52:44.147Z,39.90
2023-03-01T01:55:22.342Z,38.83
2023-03-01T01:57:59.754Z,39.20
2023-03-01T02:00:31.177Z,39.63
2023-03-01T02:03:02.896Z,40.10
2023-03-01T02:05:55.595Z,40.73
2023-03-01T02:08:26.522Z,41.90
2023-03-01T02:10:55.847Z,43.07
2023-03-01T02:13:22.884Z,42.30
2023-03-01T02:15:50.206Z,43.13
2023-03-01T02:18:21.193Z,41.67
2023-03-01T02:21:00.253Z,43.90
2023-03-01T02:23:28.134Z,45.30
2023-03-01T02:26:17.646Z,47.00
2023-03-01T02:28:46.194Z,48.13
2023-03-01T02:31:37.102Z,46.63
2023-03-01T02:34:06.694Z,47.00
2023-03-01T02:36:38.838Z,48.93
2023-03-01T02:39:08.313Z,47.23
2023-03-01T02:41:39.675Z,47.60
2023-03-01T02:44:07.069Z,48.43
2023-03-01T02:46:43.177Z,47.40
2023-03-01T02:49:39.846Z,47.70
2023-03-01T02:52:24.222Z,49.00
2023-03-01T02:55:03.391Z,47.30
2023-03-01T02:57:32.794Z,47.53
2023-03-01T03:00:08.220Z,48.03
2023-03-01T03:02:37.382Z,47.73
2023-03-01T03:05:28.003Z,47.33
2023-03-01T03:07:59.303Z,47.57
2023-03-01T03:10:30.618Z,48.87
2023-03-01T03:13:03.921Z,50.03
2023-03-01T03:15:31.325Z,50.17
2023-03-01T03:17:59.644Z,49.33
2023-03-01T03:20:29.201Z,50.97
2023-03-01T03:22:57.901Z,47.87
2023-03-01T03:25:26.522Z,50.47
2023-03-01T03:28:00.359Z,49.67
2023-03-01T03:30:30.668Z,49.20
2023-03-01T03:32:59.714Z,50.07
2023-03-01T03:35:32.687Z,52.43
2023-03-01T03:38:06.800Z,54.00
2023-03-01T03:40:41.944Z,52.37
2023-03-01T03:43:13.133Z,52.47
2023-03-01T03:45:40.675Z,51.00
2023-03-01T03:48:10.647Z,51.77
2023-03-01T03:50:39.305Z,49.73
2023-03-01T03:53:10.332Z,50.80
2023-03-01T03:55:40.192Z,48.67
2023-03-01T03:58:11.511Z,50.37
2023-03-01T04:00:44.452Z,48.77
2023-03-01T04:03:14.401Z,47.43
2023-03-01T04:05:43.184Z,49.27
2023-03-01T04:08:10.943Z,48.97
2023-03-01T04:10:42.931Z,49.17
2023-03-01T04:13:12.998Z,48.30
2023-03-01T04:15:40.505Z,48.10
2023-03-01T04:18:08.469Z,49.00
2023-03-01T04:20:36.684Z,47.20
2023-03-01T04:23:11.943Z,49.90
2023-03-01T04:25:41.159Z,48.93
2023-03-01T04:28:09.790Z,50.00
2023-03-01T04:30:37.913Z,50.33
2023-03-01T04:33:06.719Z,50.00
2023-03-01T04:35:35.704Z,52.13
2023-03-01T04:38:03.494Z,52.60
2023-03-01T04:40:30.741Z,50.67
2023-03-01T04:42:57.889Z,50.40
2023-03-01T04:45:25.318Z,52.83
2023-03-01T04:47:55.135Z,51.53
2023-03-01T04:50:24.007Z,49.53
2023-03-01T04:52:51.517Z,52.03
2023-03-01T04:55:18.763Z,51.27
2023-03-01T04:57:46.864Z,50.33
2023-03-01T05:00:21.564Z,50.83
2023-03-01T05:02:54.593Z,49.37
2023-03-01T05:05:27.856Z,49.27
2023-03-01T05:07:56.606Z,47.57
2023-03-01T05:10:24.296Z,49.70
2023-03-01T05:12:53.164Z,43.70
2023-03-01T05:15:22.735Z,49.77
2023-03-01T05:17:50.556Z,47.80
2023-03-01T05:20:18.377Z,50.07
2023-03-01T05:22:45.549Z,51.07
2023-03-01T05:25:15.055Z,50.77
2023-03-01T05:27:42.185Z,50.97
2023-03-01T05:30:15.934Z,53.70
2023-03-01T05:32:49.197Z,53.10
2023-03-01T05:35:18.282Z,51.93
2023-03-01T05:37:47.555Z,51.00
2023-03-01T05:40:20.148Z,54.23
2023-03-01T05:42:48.224Z,53.87
2023-03-01T05:45:16.491Z,51.60
2023-03-01T05:47:45.286Z,52.20
2023-03-01T05:50:24.250Z,53.40
2023-03-01T05:52:53.925Z,50.57
2023-03-01T05:55:22.429Z,50.93
2023-03-01T05:57:49.610Z,51.23
2023-03-01T06:00:18.866Z,51.90
2023-03-01T06:02:46.614Z,51.53
2023-03-01T06:05:14.896Z,50.20
2023-03-01T06:07:42.263Z,49.47
2023-03-01T06:10:11.055Z,50.43
2023-03-01T06:12:39.997Z,48.93
2023-03-01T06:15:10.898Z,48.67
2023-03-01T06:17:41.849Z,54.20
2023-03-01T06:20:11.120Z,51.20
2023-03-01T06:22:38.219Z,50.90
2023-03-01T06:25:06.434Z,50.57
2023-03-01T06:27:33.492Z,51.27
2023-03-01T06:30:00.449Z,49.43
2023-03-01T06:32:27.548Z,50.30
2023-03-01T06:34:54.619Z,50.83
2023-03-01T06:37:21.851Z,52.20
2023-03-01T06:39:49.009Z,54.37
2023-03-01T06:42:16.002Z,53.23
2023-03-01T06:44:43.143Z,53.30
2023-03-01T06:47:10.150Z,55.07
2023-03-01T06:49:37.186Z,52.27
2023-03-01T06:52:04.384Z,52.57
2023-03-01T06:54:31.401Z,52.90
2023-03-01T06:56:58.391Z,51.87
2023-03-01T06:59:25.328Z,52.17
2023-03-01T07:01:52.433Z,52.43
2023-03-01T07:04:19.477Z,52.97
2023-03-01T07:06:46.444Z,55.30
2023-03-01T07:09:13.400Z,53.77
2023-03-01T07:11:40.417Z,53.13
2023-03-01T07:14:07.956Z,54.97
2023-03-01T07:16:35.439Z,54.40
2023-03-01T07:19:02.659Z,54.97
2023-03-01T07:21:29.646Z,55.53
2023-03-01T07:23:56.600Z,55.07
2023-03-01T07:26:25.290Z,54.50
2023-03-01T07:28:53.338Z,57.57
2023-03-01T07:31:20.285Z,53.67
2023-03-01T07:33:47.291Z,50.07
2023-03-01T07:36:14.269Z,46.50
2023-03-01T07:38:41.583Z,45.00
2023-03-01T07:41:09.159Z,45.17
2023-03-01T07:43:36.328Z,47.07
2023-03-01T07:46:04.362Z,48.00
2023-03-01T07:48:33.324Z,46.73
2023-03-01T07:51:04.608Z,43.83
2023-03-01T07:53:32.648Z,46.75
2023-03-01T07:56:04.784Z,46.13
2023-03-01T07:58:32.120Z,47.00
2023-03-01T08:01:06.303Z,49.63
2023-03-01T08:03:34.124Z,48.10
2023-03-01T08:06:02.452Z,45.00
2023-03-01T08:08:29.726Z,48.72
2023-03-01T08:11:01.212Z,51.70
2023-03-01T08:13:28.706Z,51.72
2023-03-01T08:15:56.004Z,48.42
2023-03-01T08:18:23.139Z,47.75
2023-03-01T08:20:50.185Z,47.42
2023-03-01T08:23:17.209Z,47.10
2023-03-01T08:25:44.376Z,46.53
2023-03-01T08:28:11.353Z,46.65
2023-03-01T08:30:38.351Z,47.47
2023-03-01T08:33:05.355Z,44.60
2023-03-01T08:35:32.518Z,44.50
2023-03-01T08:37:59.627Z,44.53
2023-03-01T08:40:26.648Z,43.88
2023-03-01T08:42:53.693Z,45.10
2023-03-01T08:45:21.038Z,42.35
2023-03-01T08:47:48.053Z,44.67
2023-03-01T08:50:15.300Z,45.20
2023-03-01T08:52:42.290Z,42.60
2023-03-01T08:55:09.723Z,41.45
2023-03-01T08:57:36.941Z,42.53
2023-03-01T09:00:04.687Z,39.90
2023-03-01T09:02:34.305Z,39.92
2023-03-01T09:05:01.520Z,39.72
2023-03-01T09:07:29.344Z,38.13
2023-03-01T09:09:58.397Z,36.55
2023-03-01T09:12:26.097Z,35.20
2023-03-01T09:14:53.391Z,32.65
2023-03-01T09:17:22.614Z,32.47
2023-03-01T09:19:50.414Z,30.98
2023-03-01T09:22:17.413Z,25.95
2023-03-01T09:24:44.727Z,24.70
2023-03-01T09:27:13.844Z,26.40
2023-03-01T09:29:41.069Z,29.15
2023-03-01T09:32:09.375Z,27.27
2023-03-01T09:34:56.462Z,22.23
2023-03-01T09:37:23.539Z,20.65
2023-03-01T09:39:50.558Z,22.08
2023-03-01T09:42:17.685Z,21.30
2023-03-01T09:44:55.036Z,23.90
2023-03-01T09:47:36.953Z,24.90
2023-03-01T09:50:20.859Z,24.48
2023-03-01T09:53:16.376Z,25.35
2023-03-01T09:56:06.405Z,25.20
2023-03-01T09:58:54.133Z,25.13
2023-03-01T10:01:27.067Z,25.73
2023-03-01T10:04:32.698Z,25.27
2023-03-01T10:07:13.220Z,25.52
2023-03-01T10:09:43.501Z,25.10
2023-03-01T10:12:19.272Z,25.27
2023-03-01T10:15:13.546Z,25.17
2023-03-01T10:17:43.177Z,24.45
2023-03-01T10:20:21.114Z,25.58
2023-03-01T10:22:53.084Z,23.98
2023-03-01T10:25:48.270Z,24.52
2023-03-01T10:28:32.165Z,24.70
2023-03-01T10:31:00.982Z,24.38
2023-03-01T10:33:32.441Z,23.52
2023-03-01T10:35:59.812Z,24.67
2023-03-01T10:38:27.017Z,26.33
2023-03-01T10:41:00.169Z,26.80
2023-03-01T10:43:32.839Z,26.83
2023-03-01T10:45:59.943Z,26.55
2023-03-01T10:48:29.380Z,25.25
2023-03-01T10:50:59.298Z,25.73
2023-03-01T10:53:51.280Z,26.80
2023-03-01T10:56:18.372Z,26.15
2023-03-01T10:59:27.546Z,24.85
2023-03-01T11:02:24.371Z,24.90
2023-03-01T11:05:02.717Z,23.45
2023-03-01T11:07:30.252Z,23.13
2023-03-01T11:09:57.414Z,22.27
2023-03-01T11:12:25.639Z,23.20
2023-03-01T11:14:55.462Z,22.42
2023-03-01T11:17:28.011Z,22.08
2023-03-01T11:20:24.803Z,23.33
2023-03-01T11:23:01.158Z,24.13
2023-03-01T11:25:33.916Z,25.20
2023-03-01T11:28:04.329Z,25.45
2023-03-01T11:30:42.469Z,24.90
2023-03-01T11:33:10.677Z,24.33
2023-03-01T11:35:44.309Z,24.40
2023-03-01T11:38:26.305Z,24.75
2023-03-01T11:41:12.491Z,24.52
2023-03-01T11:44:01.742Z,24.77
2023-03-01T11:46:47.257Z,24.60
2023-03-01T11:49:50.375Z,23.60
2023-03-01T11:52:56.007Z,22.63
2023-03-01T11:56:04.415Z,22.98
2023-03-01T11:58:49.170Z,21.30
2023-03-01T12:01:41.036Z,20.23
2023-03-01T12:04:47.134Z,19.17
2023-03-01T12:07:26.986Z,18.25
2023-03-01T12:10:18.007Z,18.17
2023-03-01T12:12:57.598Z,17.98
2023-03-01T12:15:43.777Z,18.33
2023-03-01T12:18:35.625Z,17.70
2023-03-01T12:21:05.386Z,19.13
2023-03-01T12:24:01.647Z,18.77
2023-03-01T12:26:47.197Z,21.05
2023-03-01T12:29:16.942Z,20.58
2023-03-01T12:32:21.417Z,20.92
2023-03-01T12:35:06.548Z,20.65
2023-03-01T12:37:44.024Z,20.48
2023-03-01T12:40:32.009Z,21.17
2023-03-01T12:43:11.088Z,19.65
2023-03-01T12:46:21.143Z,19.98
2023-03-01T12:49:01.092Z,20.33
2023-03-01T12:51:32.451Z,23.80
2023-03-01T12:54:06.252Z,23.08
2023-03-01T12:56:39.302Z,24.08
2023-03-01T12:59:29.697Z,23.80
2023-03-01T13:02:05.943Z,23.58
2023-03-01T13:04:53.979Z,25.10
2023-03-01T13:07:35.402Z,25.17
2023-03-01T13:10:05.337Z,24.67
2023-03-01T13:12:47.799Z,25.13
2023-03-01T13:15:23.826Z,25.33
2023-03-01T13:18:02.884Z,23.80
2023-03-01T13:20:47.910Z,23.75
2023-03-01T13:23:23.795Z,24.73
2023-03-01T13:25:59.916Z,25.52
2023-03-01T13:28:32.967Z,25.73
2023-03-01T13:31:00.736Z,25.13
2023-03-01T13:33:27.716Z,24.08
2023-03-01T13:36:01.919Z,23.70
2023-03-01T13:38:49.925Z,24.25
2023-03-01T13:41:38.719Z,22.63
2023-03-01T13:44:27.499Z,21.95
2023-03-01T13:46:58.805Z,20.85
2023-03-01T13:49:45.584Z,18.35
2023-03-01T13:52:40.596Z,17.15
2023-03-01T13:55:21.974Z,18.77
2023-03-01T13:57:54.846Z,20.92
2023-03-01T14:00:39.771Z,19.52
2023-03-01T14:03:12.790Z,20.00
2023-03-01T14:05:42.016Z,19.63
2023-03-01T14:08:24.712Z,19.02
2023-03-01T14:11:19.727Z,19.63
2023-03-01T14:14:13.805Z,18.55
2023-03-01T14:16:46.870Z,19.67
2023-03-01T14:19:34.592Z,19.80
2023-03-01T14:22:26.414Z,20.15
2023-03-01T14:25:03.323Z,19.40
2023-03-01T14:27:42.946Z,19.70
2023-03-01T14:30:23.575Z,19.05
2023-03-01T14:33:21.303Z,19.17
2023-03-01T14:36:04.871Z,18.05
2023-03-01T14:38:47.128Z,19.75
2023-03-01T14:41:19.007Z,19.75
2023-03-01T14:44:07.604Z,19.40
2023-03-01T14:46:38.073Z,19.38
2023-03-01T14:49:20.488Z,20.13
2023-03-01T14:51:57.724Z,18.73
2023-03-01T14:54:46.253Z,18.23
2023-03-01T14:57:19.013Z,17.90
2023-03-01T14:59:48.804Z,16.95
2023-03-01T15:02:21.020Z,18.02
2023-03-01T15:04:50.279Z,17.38
2023-03-01T15:07:18.099Z,17.40
2023-03-01T15:09:45.990Z,16.80
2023-03-01T15:12:34.910Z,16.73
2023-03-01T15:15:04.670Z,15.97
2023-03-01T15:17:39.691Z,17.10
2023-03-01T15:20:22.613Z,16.30
2023-03-01T15:22:49.822Z,16.20
2023-03-01T15:25:22.485Z,15.87
2023-03-01T15:27:52.281Z,16.67
2023-03-01T15:30:35.742Z,16.50
2023-03-01T15:33:39.111Z,16.07
2023-03-01T15:36:38.522Z,15.27
2023-03-01T15:39:07.251Z,15.17
2023-03-01T15:41:48.017Z,15.63
2023-03-01T15:44:29.972Z,16.00
2023-03-01T15:47:03.210Z,15.10
2023-03-01T15:49:54.341Z,16.13
2023-03-01T15:52:30.019Z,16.10
2023-03-01T15:55:02.773Z,16.33
2023-03-01T15:57:30.768Z,16.53
2023-03-01T15:59:57.984Z,15.93
2023-03-01T16:02:25.915Z,16.57
2023-03-01T16:04:54.750Z,15.67
2023-03-01T16:07:21.861Z,15.20
2023-03-01T16:09:48.769Z,15.67
2023-03-01T16:12:17.149Z,15.77
2023-03-01T16:14:44.250Z,16.30
2023-03-01T16:17:11.482Z,15.53
2023-03-01T16:19:39.587Z,16.07
2023-03-01T16:22:06.759Z,16.57
2023-03-01T16:24:34.009Z,16.47
2023-03-01T16:27:00.985Z,16.27
2023-03-01T16:29:28.118Z,16.13
2023-03-01T16:31:55.169Z,16.87
2023-03-01T16:34:22.916Z,17.20
2023-03-01T16:36:50.189Z,16.83
2023-03-01T16:39:17.752Z,17.00
2023-03-01T16:41:44.886Z,17.57
2023-03-01T16:44:12.014Z,17.17
2023-03-01T16:46:39.203Z,19.10
2023-03-01T16:49:06.140Z,18.20
2023-03-01T16:51:35.735Z,18.10
2023-03-01T16:54:05.520Z,18.70
2023-03-01T16:56:35.440Z,19.27
2023-03-01T16:59:04.623Z,20.03
2023-03-01T17:01:38.599Z,19.37
2023-03-01T17:04:06.103Z,19.53
2023-03-01T17:06:33.504Z,19.97
2023-03-01T17:09:00.718Z,18.37
2023-03-01T17:11:27.776Z,18.53
2023-03-01T17:13:54.827Z,20.87
2023-03-01T17:16:22.810Z,19.00
2023-03-01T17:18:50.314Z,19.20
2023-03-01T17:21:17.866Z,19.03
2023-03-01T17:23:46.665Z,19.20
2023-03-01T17:26:14.327Z,19.00
2023-03-01T17:28:43.928Z,17.80
2023-03-01T17:31:11.827Z,18.40
2023-03-01T17:33:38.844Z,18.20
2023-03-01T17:36:06.153Z,18.80
2023-03-01T17:38:33.350Z,18.90
2023-03-01T17:41:01.274Z,18.53
2023-03-01T17:43:28.939Z,18.37
2023-03-01T17:45:56.476Z,18.23
2023-03-01T17:48:24.017Z,18.90
2023-03-01T17:50:51.091Z,17.97
2023-03-01T17:53:18.307Z,17.77
2023-03-01T17:55:45.627Z,17.63
2023-03-01T17:58:14.443Z,17.13
2023-03-01T18:00:42.101Z,18.23
2023-03-01T18:03:09.166Z,18.07
2023-03-01T18:05:38.067Z,16.43
2023-03-01T18:08:05.419Z,17.23
2023-03-01T18:10:33.660Z,17.50
2023-03-01T18:13:00.921Z,18.03
2023-03-01T18:15:29.035Z,18.73
2023-03-01T18:17:56.103Z,20.10
2023-03-01T18:20:23.221Z,18.67
2023-03-01T18:22:52.771Z,19.53
2023-03-01T18:25:20.404Z,19.43
2023-03-01T18:27:47.866Z,19.90
2023-03-01T18:30:15.414Z,20.23
2023-03-01T18:32:45.168Z,21.97
2023-03-01T18:35:12.219Z,22.13
2023-03-01T18:37:39.263Z,22.57
2023-03-01T18:40:08.367Z,24.13
2023-03-01T18:42:35.508Z,23.53
2023-03-01T18:45:02.574Z,24.07
2023-03-01T18:47:29.661Z,24.10
2023-03-01T18:49:56.801Z,24.73
2023-03-01T18:52:24.180Z,25.20
2023-03-01T18:54:52.138Z,26.23
2023-03-01T18:57:19.262Z,27.17
2023-03-01T18:59:46.290Z,26.50
2023-03-01T19:02:15.857Z,26.20
2023-03-01T19:04:43.429Z,26.37
2023-03-01T19:07:12.756Z,26.97
2023-03-01T19:09:41.103Z,27.93
2023-03-01T19:12:08.521Z,27.80
2023-03-01T19:14:36.003Z,28.83
2023-03-01T19:17:03.275Z,27.03
2023-03-01T19:19:30.324Z,28.23
2023-03-01T19:22:05.760Z,28.33
2023-03-01T19:24:34.019Z,26.53
2023-03-01T19:27:01.178Z,27.80
2023-03-01T19:29:28.195Z,26.00
2023-03-01T19:31:55.299Z,27.03
2023-03-01T19:34:24.553Z,29.63
2023-03-01T19:36:51.606Z,30.50
2023-03-01T19:39:18.755Z,29.93
2023-03-01T19:41:48.204Z,30.33
2023-03-01T19:44:16.930Z,29.60
2023-03-01T19:46:44.109Z,31.07
2023-03-01T19:49:11.208Z,31.80
2023-03-01T19:51:39.453Z,40.10
2023-03-01T19:54:07.421Z,40.60
2023-03-01T19:56:35.100Z,39.30
2023-03-01T19:59:04.585Z,37.60
2023-03-01T20:01:33.212Z,39.17
2023-03-01T20:04:01.376Z,39.10
2023-03-01T20:06:30.424Z,36.67
2023-03-01T20:08:58.670Z,38.37
2023-03-01T20:11:25.893Z,37.33
2023-03-01T20:13:53.280Z,37.90
2023-03-01T20:16:23.014Z,37.27
2023-03-01T20:18:50.373Z,37.63
2023-03-01T20:21:24.018Z,38.97
2023-03-01T20:23:52.707Z,41.00
2023-03-01T20:26:20.698Z,41.93
2023-03-01T20:28:50.409Z,41.27
2023-03-01T20:31:19.951Z,40.00
2023-03-01T20:33:47.115Z,41.47
2023-03-01T20:36:14.699Z,39.03
2023-03-01T20:38:42.088Z,40.17
2023-03-01T20:41:11.610Z,41.73
2023-03-01T20:43:40.461Z,41.07
2023-03-01T20:46:11.487Z,38.77
2023-03-01T20:48:43.082Z,38.93
2023-03-01T20:51:12.506Z,37.53
2023-03-01T20:53:40.061Z,37.37
2023-03-01T20:56:10.796Z,39.10
2023-03-01T20:58:38.100Z,38.20
2023-03-01T21:01:07.483Z,39.13
2023-03-01T21:03:36.462Z,38.70
2023-03-01T21:06:06.354Z,38.50
2023-03-01T21:08:35.619Z,39.60
2023-03-01T21:11:04.675Z,40.40
2023-03-01T21:13:33.725Z,41.73
2023-03-01T21:16:15.697Z,40.40
2023-03-01T21:18:43.490Z,39.97
2023-03-01T21:21:13.672Z,33.27
2023-03-01T21:23:42.793Z,35.73
2023-03-01T21:26:11.238Z,35.57
2023-03-01T21:28:39.219Z,37.03
2023-03-01T21:31:07.550Z,29.17
2023-03-01T21:33:36.214Z,28.20
2023-03-01T21:36:06.926Z,25.83
2023-03-01T21:38:39.722Z,29.03
2023-03-01T21:41:21.544Z,31.67
2023-03-01T21:43:50.722Z,34.10
2023-03-01T21:46:20.842Z,34.20
2023-03-01T21:48:49.740Z,32.87
2023-03-01T21:51:18.930Z,35.50
2023-03-01T21:53:46.442Z,37.37
2023-03-01T21:56:26.093Z,38.33
2023-03-01T21:58:53.687Z,40.70
2023-03-01T22:01:29.865Z,41.33
2023-03-01T22:03:58.299Z,40.07
2023-03-01T22:06:34.122Z,39.93
2023-03-01T22:09:07.720Z,41.07
2023-03-01T22:11:37.973Z,40.93
2023-03-01T22:14:05.839Z,40.03
2023-03-01T22:16:35.710Z,41.27
2023-03-01T22:19:04.365Z,40.47
2023-03-01T22:21:31.797Z,39.93
2023-03-01T22:23:59.449Z,40.13
2023-03-01T22:26:35.730Z,44.03
2023-03-01T22:29:06.041Z,41.83
2023-03-01T22:31:33.318Z,40.87
2023-03-01T22:34:00.822Z,41.83
2023-03-01T22:36:28.536Z,43.33
2023-03-01T22:39:00.408Z,41.27
2023-03-01T22:41:33.642Z,41.00
2023-03-01T22:44:00.844Z,40.23
2023-03-01T22:46:28.614Z,39.27
2023-03-01T22:48:55.875Z,41.33
2023-03-01T22:51:29.708Z,40.87
2023-03-01T22:53:58.141Z,39.20
2023-03-01T22:56:36.788Z,39.80
2023-03-01T22:59:09.688Z,41.67
2023-03-01T23:01:38.310Z,43.17
2023-03-01T23:04:05.669Z,42.90
2023-03-01T23:06:33.287Z,41.77
2023-03-01T23:09:04.285Z,41.27
2023-03-01T23:11:31.370Z,40.30
2023-03-01T23:13:59.719Z,39.20
2023-03-01T23:16:27.260Z,41.13
2023-03-01T23:19:00.685Z,40.47
2023-03-01T23:21:28.310Z,41.23
2023-03-01T23:23:56.939Z,42.97
2023-03-01T23:26:27.086Z,41.90
2023-03-01T23:28:55.581Z,44.87
2023-03-01T23:31:22.687Z,52.57
2023-03-01T23:33:49.720Z,54.53
2023-03-01T23:36:19.700Z,55.03
2023-03-01T23:38:48.259Z,51.30
2023-03-01T23:41:18.178Z,50.83
2023-03-01T23:43:49.973Z,53.37
2023-03-01T23:46:18.937Z,51.50
2023-03-01T23:48:46.762Z,50.13
2023-03-01T23:51:15.291Z,48.13
2023-03-01T23:53:54.020Z,49.53
2023-03-01T23:56:27.179Z,49.43
2023-03-01T23:58:55.336Z,47.97
